sensor_id;sensor_type;location;lat;lon;timestamp;temperature;humidity
11055;DHT22;5580;50.106;8.702;2023-03-25T00:00:12;11.60;99.90
11055;DHT22;5580;50.106;8.702;2023-03-25T00:02:42;11.60;99.90
11055;DHT22;5580;50.106;8.702;2023-03-25T00:05:09;11.60;99.90
11055;DHT22;5580;50.106;8.702;2023-03-25T00:07:35;11.50;99.90
11055;DHT22;5580;50.106;8.702;2023-03-25T00:10:01;11.40;99.90
11055;DHT22;5580;50.106;8.702;2023-03-25T00:12:26;11.40;99.90
11055;DHT22;5580;50.106;8.702;2023-03-25T00:14:52;11.30;99.90
11055;DHT22;5580;50.106;8.702;2023-03-25T00:17:23;11.30;99.90
11055;DHT22;5580;50.106;8.702;2023-03-25T00:19:57;11.20;99.90
11055;DHT22;5580;50.106;8.702;2023-03-25T00:22:25;11.20;99.90
11055;DHT22;5580;50.106;8.702;2023-03-25T00:24:50;11.20;99.90
11055;DHT22;5580;50.106;8.702;2023-03-25T00:27:16;11.20;99.90
11055;DHT22;5580;50.106;8.702;2023-03-25T00:29:42;11.10;99.90
11055;DHT22;5580;50.106;8.702;2023-03-25T00:32:08;11.00;99.90
11055;DHT22;5580;50.106;8.702;2023-03-25T00:34:34;11.00;99.90
11055;DHT22;5580;50.106;8.702;2023-03-25T00:37:06;11.00;99.90
11055;DHT22;5580;50.106;8.702;2023-03-25T00:39:33;11.00;99.90
11055;DHT22;5580;50.106;8.702;2023-03-25T00:41:59;10.90;99.90
11055;DHT22;5580;50.106;8.702;2023-03-25T00:44:26;10.90;99.90
11055;DHT22;5580;50.106;8.702;2023-03-25T00:46:52;10.90;99.90
11055;DHT22;5580;50.106;8.702;2023-03-25T00:49:18;10.90;99.90
11055;DHT22;5580;50.106;8.702;2023-03-25T00:51:43;10.90;99.90
11055;DHT22;5580;50.106;8.702;2023-03-25T00:54:10;11.00;99.90
11055;DHT22;5580;50.106;8.702;2023-03-25T00:56:35;11.00;99.90
11055;DHT22;5580;50.106;8.702;2023-03-25T00:59:01;10.90;99.90
11055;DHT22;5580;50.106;8.702;2023-03-25T01:01:27;10.80;99.90
11055;DHT22;5580;50.106;8.702;2023-03-25T01:03:55;10.80;99.90
11055;DHT22;5580;50.106;8.702;2023-03-25T01:06:34;10.70;99.90
11055;DHT22;5580;50.106;8.702;2023-03-25T01:09:03;10.70;99.90
11055;DHT22;5580;50.106;8.702;2023-03-25T01:11:31;10.70;99.90
11055;DHT22;5580;50.106;8.702;2023-03-25T01:14:00;10.70;99.90
11055;DHT22;5580;50.106;8.702;2023-03-25T01:16:26;10.70;99.90
11055;DHT22;5580;50.106;8.702;2023-03-25T01:18:53;10.70;99.90
11055;DHT22;5580;50.106;8.702;2023-03-25T01:21:19;10.70;99.90
11055;DHT22;5580;50.106;8.702;2023-03-25T01:23:44;10.60;99.90
11055;DHT22;5580;50.106;8.702;2023-03-25T01:26:10;10.70;99.90
11055;DHT22;5580;50.106;8.702;2023-03-25T01:28:38;10.60;99.90
11055;DHT22;5580;50.106;8.702;2023-03-25T01:31:05;10.70;99.90
11055;DHT22;5580;50.106;8.702;2023-03-25T01:33:31;10.60;99.90
11055;DHT22;5580;50.106;8.702;2023-03-25T01:35:58;10.60;99.90
11055;DHT22;5580;50.106;8.702;2023-03-25T01:38:24;10.70;99.90
11055;DHT22;5580;50.106;8.702;2023-03-25T01:40:51;10.60;99.90
11055;DHT22;5580;50.106;8.702;2023-03-25T01:43:17;10.60;99.90
11055;DHT22;5580;50.106;8.702;2023-03-25T01:45:43;10.60;99.90
11055;DHT22;5580;50.106;8.702;2023-03-25T01:48:35;10.60;99.90
11055;DHT22;5580;50.106;8.702;2023-03-25T01:51:17;10.60;99.90
11055;DHT22;5580;50.106;8.702;2023-03-25T01:53:44;10.70;99.90
11055;DHT22;5580;50.106;8.702;2023-03-25T01:56:14;10.60;99.90
11055;DHT22;5580;50.106;8.702;2023-03-25T01:58:40;10.70;99.90
11055;DHT22;5580;50.106;8.702;2023-03-25T02:01:06;10.70;99.90
11055;DHT22;5580;50.106;8.702;2023-03-25T02:03:38;10.80;99.90
11055;DHT22;5580;50.106;8.702;2023-03-25T02:06:18;10.90;99.90
11055;DHT22;5580;50.106;8.702;2023-03-25T02:08:45;10.80;99.90
11055;DHT22;5580;50.106;8.702;2023-03-25T02:11:11;10.80;99.90
11055;DHT22;5580;50.106;8.702;2023-03-25T02:13:38;10.90;99.90
11055;DHT22;5580;50.106;8.702;2023-03-25T02:22:14;10.90;99.90
11055;DHT22;5580;50.106;8.702;2023-03-25T02:27:46;11.00;99.90
11055;DHT22;5580;50.106;8.702;2023-03-25T02:39:41;11.00;99.90
11055;DHT22;5580;50.106;8.702;2023-03-25T02:45:02;11.00;99.90
11055;DHT22;5580;50.106;8.702;2023-03-25T02:47:34;11.00;99.90
11055;DHT22;5580;50.106;8.702;2023-03-25T02:50:07;11.00;99.90
11055;DHT22;5580;50.106;8.702;2023-03-25T02:52:37;11.00;99.90
11055;DHT22;5580;50.106;8.702;2023-03-25T02:55:06;11.00;99.90
11055;DHT22;5580;50.106;8.702;2023-03-25T02:57:37;11.00;99.90
11055;DHT22;5580;50.106;8.702;2023-03-25T03:00:06;11.00;99.90
11055;DHT22;5580;50.106;8.702;2023-03-25T03:02:42;11.00;99.90
11055;DHT22;5580;50.106;8.702;2023-03-25T03:05:24;11.00;99.90
11055;DHT22;5580;50.106;8.702;2023-03-25T03:11:01;11.00;99.90
11055;DHT22;5580;50.106;8.702;2023-03-25T03:16:15;10.90;99.90
11055;DHT22;5580;50.106;8.702;2023-03-25T03:18:53;10.90;99.90
11055;DHT22;5580;50.106;8.702;2023-03-25T03:27:09;10.90;99.90
11055;DHT22;5580;50.106;8.702;2023-03-25T03:29:45;10.80;99.90
11055;DHT22;5580;50.106;8.702;2023-03-25T03:32:17;10.80;99.90
11055;DHT22;5580;50.106;8.702;2023-03-25T03:34:51;10.80;99.90
11055;DHT22;5580;50.106;8.702;2023-03-25T03:37:30;10.90;99.90
11055;DHT22;5580;50.106;8.702;2023-03-25T03:39:57;10.90;99.90
11055;DHT22;5580;50.106;8.702;2023-03-25T03:44:54;10.80;99.90
11055;DHT22;5580;50.106;8.702;2023-03-25T03:47:25;10.80;99.90
11055;DHT22;5580;50.106;8.702;2023-03-25T03:49:55;10.80;99.90
11055;DHT22;5580;50.106;8.702;2023-03-25T03:52:35;10.80;99.90
11055;DHT22;5580;50.106;8.702;2023-03-25T03:55:49;10.80;99.90
11055;DHT22;5580;50.106;8.702;2023-03-25T03:58:29;10.80;99.90
11055;DHT22;5580;50.106;8.702;2023-03-25T04:01:10;10.70;99.90
11055;DHT22;5580;50.106;8.702;2023-03-25T04:04:05;10.70;99.90
11055;DHT22;5580;50.106;8.702;2023-03-25T04:06:38;10.70;99.90
11055;DHT22;5580;50.106;8.702;2023-03-25T04:11:49;10.50;99.90
11055;DHT22;5580;50.106;8.702;2023-03-25T04:14:16;10.50;99.90
11055;DHT22;5580;50.106;8.702;2023-03-25T04:16:42;10.50;99.90
11055;DHT22;5580;50.106;8.702;2023-03-25T04:19:10;10.50;99.90
11055;DHT22;5580;50.106;8.702;2023-03-25T04:21:38;10.40;99.90
11055;DHT22;5580;50.106;8.702;2023-03-25T04:24:04;10.40;99.90
11055;DHT22;5580;50.106;8.702;2023-03-25T04:26:33;10.40;99.90
11055;DHT22;5580;50.106;8.702;2023-03-25T04:29:02;10.30;99.90
11055;DHT22;5580;50.106;8.702;2023-03-25T04:31:29;10.30;99.90
11055;DHT22;5580;50.106;8.702;2023-03-25T04:33:58;10.30;99.90
11055;DHT22;5580;50.106;8.702;2023-03-25T04:36:25;10.20;99.90
11055;DHT22;5580;50.106;8.702;2023-03-25T04:38:54;10.20;99.90
11055;DHT22;5580;50.106;8.702;2023-03-25T04:41:21;10.20;99.90
11055;DHT22;5580;50.106;8.702;2023-03-25T04:43:46;10.20;99.90
11055;DHT22;5580;50.106;8.702;2023-03-25T04:46:13;10.20;99.90
11055;DHT22;5580;50.106;8.702;2023-03-25T04:48:39;10.10;99.90
11055;DHT22;5580;50.106;8.702;2023-03-25T04:51:06;10.00;99.90
11055;DHT22;5580;50.106;8.702;2023-03-25T04:53:35;10.00;99.90
11055;DHT22;5580;50.106;8.702;2023-03-25T04:56:01;10.00;99.90
11055;DHT22;5580;50.106;8.702;2023-03-25T04:58:27;10.10;99.90
11055;DHT22;5580;50.106;8.702;2023-03-25T05:00:53;10.10;99.90
11055;DHT22;5580;50.106;8.702;2023-03-25T05:03:19;10.10;99.90
11055;DHT22;5580;50.106;8.702;2023-03-25T05:05:49;10.10;99.90
11055;DHT22;5580;50.106;8.702;2023-03-25T05:08:16;10.10;99.90
11055;DHT22;5580;50.106;8.702;2023-03-25T05:10:43;10.10;99.90
11055;DHT22;5580;50.106;8.702;2023-03-25T05:13:09;10.00;99.90
11055;DHT22;5580;50.106;8.702;2023-03-25T05:15:35;10.00;99.90
11055;DHT22;5580;50.106;8.702;2023-03-25T05:18:08;10.00;99.90
11055;DHT22;5580;50.106;8.702;2023-03-25T05:20:38;9.90;99.90
11055;DHT22;5580;50.106;8.702;2023-03-25T05:23:08;10.00;99.90
11055;DHT22;5580;50.106;8.702;2023-03-25T05:25:37;10.00;99.90
11055;DHT22;5580;50.106;8.702;2023-03-25T05:28:03;10.00;99.90
11055;DHT22;5580;50.106;8.702;2023-03-25T05:30:33;10.00;99.90
11055;DHT22;5580;50.106;8.702;2023-03-25T05:33:09;9.90;99.90
11055;DHT22;5580;50.106;8.702;2023-03-25T05:35:36;9.90;99.90
11055;DHT22;5580;50.106;8.702;2023-03-25T05:38:03;9.90;99.90
11055;DHT22;5580;50.106;8.702;2023-03-25T05:40:28;9.90;99.90
11055;DHT22;5580;50.106;8.702;2023-03-25T05:42:54;9.90;99.90
11055;DHT22;5580;50.106;8.702;2023-03-25T05:45:21;9.90;99.90
11055;DHT22;5580;50.106;8.702;2023-03-25T05:47:46;9.90;99.90
11055;DHT22;5580;50.106;8.702;2023-03-25T05:50:12;9.90;99.90
11055;DHT22;5580;50.106;8.702;2023-03-25T05:52:41;9.90;99.90
11055;DHT22;5580;50.106;8.702;2023-03-25T05:55:15;9.90;99.90
11055;DHT22;5580;50.106;8.702;2023-03-25T05:57:41;9.90;99.90
11055;DHT22;5580;50.106;8.702;2023-03-25T06:00:07;9.80;99.90
11055;DHT22;5580;50.106;8.702;2023-03-25T06:02:34;9.80;99.90
11055;DHT22;5580;50.106;8.702;2023-03-25T06:05:04;9.80;99.90
11055;DHT22;5580;50.106;8.702;2023-03-25T06:07:30;9.80;99.90
11055;DHT22;5580;50.106;8.702;2023-03-25T06:09:55;9.80;99.90
11055;DHT22;5580;50.106;8.702;2023-03-25T06:12:22;9.80;99.90
11055;DHT22;5580;50.106;8.702;2023-03-25T06:14:48;9.80;99.90
11055;DHT22;5580;50.106;8.702;2023-03-25T06:17:19;9.80;99.90
11055;DHT22;5580;50.106;8.702;2023-03-25T06:19:46;9.90;99.90
11055;DHT22;5580;50.106;8.702;2023-03-25T06:22:12;9.90;99.90
11055;DHT22;5580;50.106;8.702;2023-03-25T06:24:39;9.90;99.90
11055;DHT22;5580;50.106;8.702;2023-03-25T06:27:08;9.80;99.90
11055;DHT22;5580;50.106;8.702;2023-03-25T06:29:36;9.80;99.90
11055;DHT22;5580;50.106;8.702;2023-03-25T06:32:03;9.90;99.90
11055;DHT22;5580;50.106;8.702;2023-03-25T06:34:30;10.00;99.90
11055;DHT22;5580;50.106;8.702;2023-03-25T06:36:59;10.00;99.90
11055;DHT22;5580;50.106;8.702;2023-03-25T06:39:26;10.10;99.90
11055;DHT22;5580;50.106;8.702;2023-03-25T06:41:51;10.10;99.90
11055;DHT22;5580;50.106;8.702;2023-03-25T06:44:17;10.10;99.90
11055;DHT22;5580;50.106;8.702;2023-03-25T06:46:43;10.20;99.90
11055;DHT22;5580;50.106;8.702;2023-03-25T06:49:08;10.20;99.90
11055;DHT22;5580;50.106;8.702;2023-03-25T06:51:34;10.20;99.90
11055;DHT22;5580;50.106;8.702;2023-03-25T06:53:59;10.20;99.90
11055;DHT22;5580;50.106;8.702;2023-03-25T06:56:25;10.20;99.90
11055;DHT22;5580;50.106;8.702;2023-03-25T06:58:51;10.20;99.90
11055;DHT22;5580;50.106;8.702;2023-03-25T07:01:16;10.30;99.90
11055;DHT22;5580;50.106;8.702;2023-03-25T07:03:42;10.30;99.90
11055;DHT22;5580;50.106;8.702;2023-03-25T07:06:17;10.30;99.90
11055;DHT22;5580;50.106;8.702;2023-03-25T07:08:44;10.30;99.90
11055;DHT22;5580;50.106;8.702;2023-03-25T07:11:11;10.30;99.90
11055;DHT22;5580;50.106;8.702;2023-03-25T07:13:38;10.40;99.90
11055;DHT22;5580;50.106;8.702;2023-03-25T07:16:04;10.40;99.90
11055;DHT22;5580;50.106;8.702;2023-03-25T07:18:30;10.50;99.90
11055;DHT22;5580;50.106;8.702;2023-03-25T07:20:56;10.60;99.90
11055;DHT22;5580;50.106;8.702;2023-03-25T07:23:22;10.60;99.90
11055;DHT22;5580;50.106;8.702;2023-03-25T07:25:47;10.70;99.90
11055;DHT22;5580;50.106;8.702;2023-03-25T07:28:13;10.80;99.90
11055;DHT22;5580;50.106;8.702;2023-03-25T07:30:39;10.80;99.90
11055;DHT22;5580;50.106;8.702;2023-03-25T07:33:04;10.80;99.90
11055;DHT22;5580;50.106;8.702;2023-03-25T07:35:30;10.80;99.90
11055;DHT22;5580;50.106;8.702;2023-03-25T07:37:56;10.90;99.90
11055;DHT22;5580;50.106;8.702;2023-03-25T07:40:22;11.00;99.90
11055;DHT22;5580;50.106;8.702;2023-03-25T07:42:47;11.00;99.90
11055;DHT22;5580;50.106;8.702;2023-03-25T07:45:13;11.00;99.90
11055;DHT22;5580;50.106;8.702;2023-03-25T07:47:38;11.10;99.90
11055;DHT22;5580;50.106;8.702;2023-03-25T07:50:05;11.20;99.90
11055;DHT22;5580;50.106;8.702;2023-03-25T07:52:30;11.20;99.90
11055;DHT22;5580;50.106;8.702;2023-03-25T07:54:56;11.20;99.90
11055;DHT22;5580;50.106;8.702;2023-03-25T07:57:22;11.20;99.90
11055;DHT22;5580;50.106;8.702;2023-03-25T07:59:47;11.20;99.90
11055;DHT22;5580;50.106;8.702;2023-03-25T08:02:13;11.10;99.90
11055;DHT22;5580;50.106;8.702;2023-03-25T08:04:39;11.00;99.90
11055;DHT22;5580;50.106;8.702;2023-03-25T08:07:05;11.00;99.90
11055;DHT22;5580;50.106;8.702;2023-03-25T08:09:31;11.00;99.90
11055;DHT22;5580;50.106;8.702;2023-03-25T08:11:56;11.00;99.90
11055;DHT22;5580;50.106;8.702;2023-03-25T08:14:22;11.00;99.90
11055;DHT22;5580;50.106;8.702;2023-03-25T08:16:47;11.10;99.90
11055;DHT22;5580;50.106;8.702;2023-03-25T08:19:13;11.20;99.90
11055;DHT22;5580;50.106;8.702;2023-03-25T08:21:39;11.30;99.90
11055;DHT22;5580;50.106;8.702;2023-03-25T08:24:05;11.30;99.90
11055;DHT22;5580;50.106;8.702;2023-03-25T08:26:33;11.40;99.90
11055;DHT22;5580;50.106;8.702;2023-03-25T08:29:00;11.40;99.90
11055;DHT22;5580;50.106;8.702;2023-03-25T08:31:28;11.50;99.90
11055;DHT22;5580;50.106;8.702;2023-03-25T08:34:00;11.60;99.90
11055;DHT22;5580;50.106;8.702;2023-03-25T08:36:26;11.60;99.90
11055;DHT22;5580;50.106;8.702;2023-03-25T08:38:52;11.70;99.90
11055;DHT22;5580;50.106;8.702;2023-03-25T08:41:17;11.70;99.90
11055;DHT22;5580;50.106;8.702;2023-03-25T08:43:43;11.70;99.90
11055;DHT22;5580;50.106;8.702;2023-03-25T08:46:09;11.70;99.90
11055;DHT22;5580;50.106;8.702;2023-03-25T08:48:35;11.70;99.90
11055;DHT22;5580;50.106;8.702;2023-03-25T08:51:01;11.70;99.90
11055;DHT22;5580;50.106;8.702;2023-03-25T08:53:27;11.80;99.90
11055;DHT22;5580;50.106;8.702;2023-03-25T08:55:54;11.80;99.90
11055;DHT22;5580;50.106;8.702;2023-03-25T08:58:19;11.80;99.90
11055;DHT22;5580;50.106;8.702;2023-03-25T09:00:47;11.80;99.90
11055;DHT22;5580;50.106;8.702;2023-03-25T09:03:13;11.90;99.90
11055;DHT22;5580;50.106;8.702;2023-03-25T09:05:39;11.80;99.90
11055;DHT22;5580;50.106;8.702;2023-03-25T09:08:05;11.80;99.90
11055;DHT22;5580;50.106;8.702;2023-03-25T09:10:31;11.90;99.90
11055;DHT22;5580;50.106;8.702;2023-03-25T09:12:56;11.90;99.90
11055;DHT22;5580;50.106;8.702;2023-03-25T09:15:22;11.90;99.90
11055;DHT22;5580;50.106;8.702;2023-03-25T09:17:48;11.90;99.90
11055;DHT22;5580;50.106;8.702;2023-03-25T09:20:14;11.90;99.90
11055;DHT22;5580;50.106;8.702;2023-03-25T09:22:40;11.90;99.90
11055;DHT22;5580;50.106;8.702;2023-03-25T09:25:06;12.00;99.90
11055;DHT22;5580;50.106;8.702;2023-03-25T09:27:32;12.00;99.90
11055;DHT22;5580;50.106;8.702;2023-03-25T09:29:58;12.00;99.90
11055;DHT22;5580;50.106;8.702;2023-03-25T09:32:24;12.10;99.90
11055;DHT22;5580;50.106;8.702;2023-03-25T09:34:50;12.10;99.90
11055;DHT22;5580;50.106;8.702;2023-03-25T09:37:16;12.10;99.90
11055;DHT22;5580;50.106;8.702;2023-03-25T09:39:42;12.20;99.90
11055;DHT22;5580;50.106;8.702;2023-03-25T09:45:13;12.50;99.90
11055;DHT22;5580;50.106;8.702;2023-03-25T09:47:43;12.60;99.90
11055;DHT22;5580;50.106;8.702;2023-03-25T09:50:13;12.60;99.90
11055;DHT22;5580;50.106;8.702;2023-03-25T09:52:58;12.60;99.90
11055;DHT22;5580;50.106;8.702;2023-03-25T09:55:31;12.50;99.90
11055;DHT22;5580;50.106;8.702;2023-03-25T09:58:24;12.40;99.90
11055;DHT22;5580;50.106;8.702;2023-03-25T10:03:47;11.50;99.90
11055;DHT22;5580;50.106;8.702;2023-03-25T10:06:17;11.30;99.90
11055;DHT22;5580;50.106;8.702;2023-03-25T10:08:54;11.10;99.90
11055;DHT22;5580;50.106;8.702;2023-03-25T10:11:44;11.10;99.90
11055;DHT22;5580;50.106;8.702;2023-03-25T10:14:25;10.90;99.90
11055;DHT22;5580;50.106;8.702;2023-03-25T10:22:16;10.80;99.90
11055;DHT22;5580;50.106;8.702;2023-03-25T10:27:39;10.80;99.90
11055;DHT22;5580;50.106;8.702;2023-03-25T10:32:53;10.90;99.90
11055;DHT22;5580;50.106;8.702;2023-03-25T10:35:33;10.90;99.90
11055;DHT22;5580;50.106;8.702;2023-03-25T10:38:03;10.90;99.90
11055;DHT22;5580;50.106;8.702;2023-03-25T10:40:44;10.90;99.90
11055;DHT22;5580;50.106;8.702;2023-03-25T10:45:56;11.00;99.90
11055;DHT22;5580;50.106;8.702;2023-03-25T10:48:27;11.10;99.90
11055;DHT22;5580;50.106;8.702;2023-03-25T10:51:15;11.20;99.90
11055;DHT22;5580;50.106;8.702;2023-03-25T10:53:41;11.20;99.90
11055;DHT22;5580;50.106;8.702;2023-03-25T10:56:13;11.30;99.90
11055;DHT22;5580;50.106;8.702;2023-03-25T10:58:41;11.40;99.90
11055;DHT22;5580;50.106;8.702;2023-03-25T11:01:21;11.50;99.90
11055;DHT22;5580;50.106;8.702;2023-03-25T11:03:51;11.60;99.90
11055;DHT22;5580;50.106;8.702;2023-03-25T11:06:29;11.60;99.90
11055;DHT22;5580;50.106;8.702;2023-03-25T11:09:24;11.80;99.90
11055;DHT22;5580;50.106;8.702;2023-03-25T11:11:52;11.90;99.90
11055;DHT22;5580;50.106;8.702;2023-03-25T11:14:22;11.90;99.90
11055;DHT22;5580;50.106;8.702;2023-03-25T11:16:53;12.00;99.90
11055;DHT22;5580;50.106;8.702;2023-03-25T11:19:24;12.00;99.90
11055;DHT22;5580;50.106;8.702;2023-03-25T11:21:57;12.10;99.90
11055;DHT22;5580;50.106;8.702;2023-03-25T11:24:30;12.20;99.90
11055;DHT22;5580;50.106;8.702;2023-03-25T11:26:57;12.30;99.90
11055;DHT22;5580;50.106;8.702;2023-03-25T11:29:25;12.50;99.90
11055;DHT22;5580;50.106;8.702;2023-03-25T11:32:14;12.50;99.90
11055;DHT22;5580;50.106;8.702;2023-03-25T11:34:40;12.60;99.90
11055;DHT22;5580;50.106;8.702;2023-03-25T11:37:18;12.60;99.90
11055;DHT22;5580;50.106;8.702;2023-03-25T11:39:49;12.70;99.90
11055;DHT22;5580;50.106;8.702;2023-03-25T11:44:51;12.80;99.90
11055;DHT22;5580;50.106;8.702;2023-03-25T11:47:32;12.90;99.90
11055;DHT22;5580;50.106;8.702;2023-03-25T11:49:59;13.10;99.90
11055;DHT22;5580;50.106;8.702;2023-03-25T11:52:34;13.20;99.90
11055;DHT22;5580;50.106;8.702;2023-03-25T11:55:02;13.30;99.90
11055;DHT22;5580;50.106;8.702;2023-03-25T11:57:35;13.40;99.90
11055;DHT22;5580;50.106;8.702;2023-03-25T12:00:26;13.40;99.90
11055;DHT22;5580;50.106;8.702;2023-03-25T12:05:25;13.50;99.90
11055;DHT22;5580;50.106;8.702;2023-03-25T12:08:00;13.50;99.90
11055;DHT22;5580;50.106;8.702;2023-03-25T12:10:34;13.50;99.90
11055;DHT22;5580;50.106;8.702;2023-03-25T12:16:06;13.50;99.90
11055;DHT22;5580;50.106;8.702;2023-03-25T12:21:07;13.60;99.90
11055;DHT22;5580;50.106;8.702;2023-03-25T12:26:36;13.70;99.90
11055;DHT22;5580;50.106;8.702;2023-03-25T12:51:12;14.00;99.90
11055;DHT22;5580;50.106;8.702;2023-03-25T12:56:44;14.10;99.90
11055;DHT22;5580;50.106;8.702;2023-03-25T12:59:40;14.10;99.90
11055;DHT22;5580;50.106;8.702;2023-03-25T13:05:18;14.00;99.90
11055;DHT22;5580;50.106;8.702;2023-03-25T13:07:55;14.00;99.90
11055;DHT22;5580;50.106;8.702;2023-03-25T13:10:27;14.00;99.90
11055;DHT22;5580;50.106;8.702;2023-03-25T13:12:57;14.10;99.90
11055;DHT22;5580;50.106;8.702;2023-03-25T13:23:20;14.00;99.90
11055;DHT22;5580;50.106;8.702;2023-03-25T13:25:54;14.00;99.90
11055;DHT22;5580;50.106;8.702;2023-03-25T13:28:44;13.90;99.90
11055;DHT22;5580;50.106;8.702;2023-03-25T13:31:33;13.90;99.90
11055;DHT22;5580;50.106;8.702;2023-03-25T13:36:37;13.70;99.90
11055;DHT22;5580;50.106;8.702;2023-03-25T13:39:17;13.70;99.90
11055;DHT22;5580;50.106;8.702;2023-03-25T13:41:46;13.70;99.90
11055;DHT22;5580;50.106;8.702;2023-03-25T13:44:36;13.70;99.90
11055;DHT22;5580;50.106;8.702;2023-03-25T13:47:20;13.70;99.90
11055;DHT22;5580;50.106;8.702;2023-03-25T13:49:53;13.70;99.90
11055;DHT22;5580;50.106;8.702;2023-03-25T13:52:21;13.70;99.90
11055;DHT22;5580;50.106;8.702;2023-03-25T13:54:53;13.70;99.90
11055;DHT22;5580;50.106;8.702;2023-03-25T14:06:04;13.70;99.90
11055;DHT22;5580;50.106;8.702;2023-03-25T14:14:20;13.70;99.90
11055;DHT22;5580;50.106;8.702;2023-03-25T14:16:51;13.70;99.90
11055;DHT22;5580;50.106;8.702;2023-03-25T14:19:30;13.80;99.90
11055;DHT22;5580;50.106;8.702;2023-03-25T14:21:56;13.80;99.90
11055;DHT22;5580;50.106;8.702;2023-03-25T14:24:34;13.90;99.90
11055;DHT22;5580;50.106;8.702;2023-03-25T14:27:11;14.00;99.90
11055;DHT22;5580;50.106;8.702;2023-03-25T14:29:46;14.00;99.90
11055;DHT22;5580;50.106;8.702;2023-03-25T14:34:46;14.00;99.90
11055;DHT22;5580;50.106;8.702;2023-03-25T14:39:52;14.10;99.90
11055;DHT22;5580;50.106;8.702;2023-03-25T14:44:53;14.10;99.90
11055;DHT22;5580;50.106;8.702;2023-03-25T14:47:50;14.10;99.90
11055;DHT22;5580;50.106;8.702;2023-03-25T14:52:51;14.20;99.90
11055;DHT22;5580;50.106;8.702;2023-03-25T14:55:20;14.20;99.90
11055;DHT22;5580;50.106;8.702;2023-03-25T14:57:47;14.20;99.90
11055;DHT22;5580;50.106;8.702;2023-03-25T15:00:23;14.20;99.90
11055;DHT22;5580;50.106;8.702;2023-03-25T15:02:58;14.30;99.90
11055;DHT22;5580;50.106;8.702;2023-03-25T15:05:27;14.30;99.90
11055;DHT22;5580;50.106;8.702;2023-03-25T15:08:43;14.30;99.90
11055;DHT22;5580;50.106;8.702;2023-03-25T15:11:01;14.30;99.90
11055;DHT22;5580;50.106;8.702;2023-03-25T15:13:31;14.40;99.90
11055;DHT22;5580;50.106;8.702;2023-03-25T15:16:04;14.40;99.90
11055;DHT22;5580;50.106;8.702;2023-03-25T15:21:23;14.40;99.90
11055;DHT22;5580;50.106;8.702;2023-03-25T15:26:27;14.40;99.90
11055;DHT22;5580;50.106;8.702;2023-03-25T15:43:18;14.40;98.40
11055;DHT22;5580;50.106;8.702;2023-03-25T15:48:53;14.40;98.40
11055;DHT22;5580;50.106;8.702;2023-03-25T16:02:37;14.50;99.20
11055;DHT22;5580;50.106;8.702;2023-03-25T16:05:05;14.40;99.60
11055;DHT22;5580;50.106;8.702;2023-03-25T16:07:31;14.40;99.70
11055;DHT22;5580;50.106;8.702;2023-03-25T16:10:28;14.40;99.60
11055;DHT22;5580;50.106;8.702;2023-03-25T16:13:00;14.40;99.60
11055;DHT22;5580;50.106;8.702;2023-03-25T16:15:28;14.40;99.90
11055;DHT22;5580;50.106;8.702;2023-03-25T16:17:56;14.40;99.40
11055;DHT22;5580;50.106;8.702;2023-03-25T16:20:25;14.40;99.50
11055;DHT22;5580;50.106;8.702;2023-03-25T16:22:54;14.30;99.40
11055;DHT22;5580;50.106;8.702;2023-03-25T16:28:01;14.30;99.50
11055;DHT22;5580;50.106;8.702;2023-03-25T16:30:31;14.20;99.90
11055;DHT22;5580;50.106;8.702;2023-03-25T16:35:59;14.20;99.90
11055;DHT22;5580;50.106;8.702;2023-03-25T16:38:26;14.20;99.90
11055;DHT22;5580;50.106;8.702;2023-03-25T16:41:11;14.10;99.90
11055;DHT22;5580;50.106;8.702;2023-03-25T16:43:37;14.10;99.90
11055;DHT22;5580;50.106;8.702;2023-03-25T16:46:04;14.00;99.90
11055;DHT22;5580;50.106;8.702;2023-03-25T16:48:34;14.00;99.90
11055;DHT22;5580;50.106;8.702;2023-03-25T16:51:16;14.00;99.90
11055;DHT22;5580;50.106;8.702;2023-03-25T16:53:48;13.90;99.90
11055;DHT22;5580;50.106;8.702;2023-03-25T16:59:04;13.80;99.90
11055;DHT22;5580;50.106;8.702;2023-03-25T17:01:37;13.80;99.90
11055;DHT22;5580;50.106;8.702;2023-03-25T17:04:13;13.70;99.90
11055;DHT22;5580;50.106;8.702;2023-03-25T17:06:42;13.70;99.90
11055;DHT22;5580;50.106;8.702;2023-03-25T17:09:16;13.70;99.90
11055;DHT22;5580;50.106;8.702;2023-03-25T17:11:44;13.60;99.90
11055;DHT22;5580;50.106;8.702;2023-03-25T17:14:18;13.60;99.90
11055;DHT22;5580;50.106;8.702;2023-03-25T17:16:47;13.60;99.90
11055;DHT22;5580;50.106;8.702;2023-03-25T17:19:15;13.60;99.90
11055;DHT22;5580;50.106;8.702;2023-03-25T17:24:37;13.60;99.90
11055;DHT22;5580;50.106;8.702;2023-03-25T17:27:26;13.50;99.90
11055;DHT22;5580;50.106;8.702;2023-03-25T17:29:52;13.50;99.90
11055;DHT22;5580;50.106;8.702;2023-03-25T17:32:19;13.40;99.90
11055;DHT22;5580;50.106;8.702;2023-03-25T17:34:55;13.40;99.90
11055;DHT22;5580;50.106;8.702;2023-03-25T17:37:22;13.40;99.90
11055;DHT22;5580;50.106;8.702;2023-03-25T17:39:49;13.40;99.90
11055;DHT22;5580;50.106;8.702;2023-03-25T17:42:23;13.30;99.90
11055;DHT22;5580;50.106;8.702;2023-03-25T17:44:50;13.30;99.90
11055;DHT22;5580;50.106;8.702;2023-03-25T17:47:19;13.30;99.90
11055;DHT22;5580;50.106;8.702;2023-03-25T17:49:45;13.30;99.90
11055;DHT22;5580;50.106;8.702;2023-03-25T17:52:10;13.20;99.90
11055;DHT22;5580;50.106;8.702;2023-03-25T17:54:37;13.20;99.90
11055;DHT22;5580;50.106;8.702;2023-03-25T17:57:07;13.20;99.90
11055;DHT22;5580;50.106;8.702;2023-03-25T17:59:33;13.10;99.90
11055;DHT22;5580;50.106;8.702;2023-03-25T18:01:59;13.10;99.90
11055;DHT22;5580;50.106;8.702;2023-03-25T18:04:25;13.10;99.90
11055;DHT22;5580;50.106;8.702;2023-03-25T18:06:51;13.10;99.90
11055;DHT22;5580;50.106;8.702;2023-03-25T18:09:21;13.10;99.90
11055;DHT22;5580;50.106;8.702;2023-03-25T18:11:53;13.10;99.90
11055;DHT22;5580;50.106;8.702;2023-03-25T18:14:21;13.10;99.90
11055;DHT22;5580;50.106;8.702;2023-03-25T18:16:46;13.10;99.90
11055;DHT22;5580;50.106;8.702;2023-03-25T18:19:24;13.10;99.90
11055;DHT22;5580;50.106;8.702;2023-03-25T18:21:50;13.00;99.90
11055;DHT22;5580;50.106;8.702;2023-03-25T18:24:16;13.00;99.90
11055;DHT22;5580;50.106;8.702;2023-03-25T18:26:43;12.90;99.90
11055;DHT22;5580;50.106;8.702;2023-03-25T18:29:11;12.90;99.90
11055;DHT22;5580;50.106;8.702;2023-03-25T18:31:38;12.90;99.90
11055;DHT22;5580;50.106;8.702;2023-03-25T18:34:04;12.80;99.90
11055;DHT22;5580;50.106;8.702;2023-03-25T18:36:30;12.80;99.90
11055;DHT22;5580;50.106;8.702;2023-03-25T18:38:55;12.70;99.90
11055;DHT22;5580;50.106;8.702;2023-03-25T18:41:21;12.60;99.90
11055;DHT22;5580;50.106;8.702;2023-03-25T18:43:47;12.60;99.90
11055;DHT22;5580;50.106;8.702;2023-03-25T18:46:13;12.50;99.90
11055;DHT22;5580;50.106;8.702;2023-03-25T18:48:40;12.50;99.90
11055;DHT22;5580;50.106;8.702;2023-03-25T18:51:09;12.50;99.90
11055;DHT22;5580;50.106;8.702;2023-03-25T18:53:35;12.40;99.90
11055;DHT22;5580;50.106;8.702;2023-03-25T18:56:01;12.40;99.90
11055;DHT22;5580;50.106;8.702;2023-03-25T18:58:29;12.30;99.90
11055;DHT22;5580;50.106;8.702;2023-03-25T19:00:55;12.30;99.90
11055;DHT22;5580;50.106;8.702;2023-03-25T19:03:22;12.20;99.90